NWK1606 YPPH-YPKG
Flight info
| Callsign | NWK1606 |
|---|---|
| Flight time | 0h 49m |
| Altitude | 33000 |
| Route | AMANA Y31 LAKIR Y69 BOSLI Y67 KG |
| Aircraft | A320/M-SDE3FGHIRWYZ/LB1 |
Departure
| Time | 2026-05-07 03:23 |
|---|---|
| Airport | Perth International Airport (YPPH) |
Arrival
| Time | 2026-05-07 04:12 |
|---|---|
| Airport | Kalgoorlie Boulder Airport (YPKG) |
| Time | Latitude | Longitude | Altitude | Speed | Heading |
|---|---|---|---|---|---|
| 2026-05-07 03:12 | -31.93339 | 115.96205 | 57 ft | 0 kts | 284° |
| 2026-05-07 03:15 | -31.93342 | 115.96220 | 49 ft | 4 kts | 283° |
| 2026-05-07 03:16 | -31.93349 | 115.96251 | 51 ft | 4 kts | 294° |
| 2026-05-07 03:16 | -31.93362 | 115.96278 | 50 ft | 4 kts | 290° |
| 2026-05-07 03:16 | -31.93361 | 115.96303 | 49 ft | 4 kts | 219° |
| 2026-05-07 03:16 | -31.93338 | 115.96316 | 50 ft | 4 kts | 193° |
| 2026-05-07 03:17 | -31.93322 | 115.96320 | 51 ft | 0 kts | 191° |
| 2026-05-07 03:19 | -31.93324 | 115.96320 | 51 ft | 1 kts | 191° |
| 2026-05-07 03:19 | -31.93344 | 115.96315 | 47 ft | 4 kts | 192° |
| 2026-05-07 03:19 | -31.93385 | 115.96303 | 53 ft | 8 kts | 197° |
| 2026-05-07 03:19 | -31.93445 | 115.96276 | 54 ft | 10 kts | 202° |
| 2026-05-07 03:20 | -31.93511 | 115.96234 | 55 ft | 11 kts | 210° |
| 2026-05-07 03:20 | -31.93585 | 115.96196 | 55 ft | 13 kts | 191° |
| 2026-05-07 03:20 | -31.93676 | 115.96177 | 53 ft | 14 kts | 179° |
| 2026-05-07 03:20 | -31.93774 | 115.96167 | 53 ft | 15 kts | 217° |
| 2026-05-07 03:21 | -31.93836 | 115.96058 | 53 ft | 17 kts | 239° |
| 2026-05-07 03:21 | -31.93903 | 115.95925 | 50 ft | 14 kts | 238° |
| 2026-05-07 03:21 | -31.93985 | 115.95861 | 51 ft | 16 kts | 171° |
| 2026-05-07 03:21 | -31.94080 | 115.95922 | 50 ft | 11 kts | 147° |
| 2026-05-07 03:22 | -31.94079 | 115.95965 | 50 ft | 0 kts | 58° |
| 2026-05-07 03:22 | -31.94070 | 115.95983 | 48 ft | 8 kts | 58° |
| 2026-05-07 03:22 | -31.93937 | 115.96240 | 54 ft | 71 kts | 59° |
| 2026-05-07 03:22 | -31.93572 | 115.96947 | 56 ft | 128 kts | 58° |
| 2026-05-07 03:23 | -31.93078 | 115.97885 | 493 ft | 135 kts | 59° |
| 2026-05-07 03:23 | -31.92598 | 115.98826 | 1084 ft | 135 kts | 59° |
| 2026-05-07 03:23 | -31.92135 | 115.99738 | 1642 ft | 128 kts | 61° |
| 2026-05-07 03:23 | -31.91671 | 116.00656 | 1937 ft | 139 kts | 62° |
| 2026-05-07 03:24 | -31.91138 | 116.01711 | 2099 ft | 161 kts | 59° |
| 2026-05-07 03:24 | -31.90503 | 116.02959 | 2270 ft | 186 kts | 59° |
| 2026-05-07 03:24 | -31.89808 | 116.04318 | 2631 ft | 206 kts | 59° |
| 2026-05-07 03:24 | -31.89028 | 116.05846 | 3047 ft | 229 kts | 59° |
| 2026-05-07 03:25 | -31.88296 | 116.07273 | 3690 ft | 238 kts | 58° |
| 2026-05-07 03:25 | -31.87441 | 116.08936 | 4557 ft | 243 kts | 58° |
| 2026-05-07 03:25 | -31.86555 | 116.10661 | 5430 ft | 248 kts | 59° |
| 2026-05-07 03:25 | -31.85709 | 116.12467 | 6280 ft | 254 kts | 68° |
| 2026-05-07 03:26 | -31.85222 | 116.14481 | 7114 ft | 259 kts | 77° |
| 2026-05-07 03:26 | -31.84825 | 116.16565 | 7923 ft | 263 kts | 77° |
| 2026-05-07 03:26 | -31.84417 | 116.18686 | 8738 ft | 267 kts | 77° |
| 2026-05-07 03:26 | -31.84005 | 116.20811 | 9546 ft | 271 kts | 77° |
| 2026-05-07 03:27 | -31.83581 | 116.22991 | 10316 ft | 277 kts | 78° |
| 2026-05-07 03:27 | -31.83132 | 116.25296 | 10565 ft | 301 kts | 78° |
| 2026-05-07 03:27 | -31.82648 | 116.27792 | 10739 ft | 323 kts | 77° |
| 2026-05-07 03:27 | -31.82138 | 116.30429 | 11189 ft | 334 kts | 77° |
| 2026-05-07 03:28 | -31.81616 | 116.33115 | 11837 ft | 339 kts | 77° |
| 2026-05-07 03:28 | -31.81088 | 116.35826 | 12528 ft | 342 kts | 77° |
| 2026-05-07 03:28 | -31.80559 | 116.38533 | 13208 ft | 345 kts | 77° |
| 2026-05-07 03:28 | -31.80015 | 116.41296 | 13908 ft | 348 kts | 77° |
| 2026-05-07 03:29 | -31.79465 | 116.44093 | 14547 ft | 351 kts | 77° |
| 2026-05-07 03:29 | -31.78913 | 116.46904 | 15139 ft | 354 kts | 77° |
| 2026-05-07 03:29 | -31.78356 | 116.49741 | 15717 ft | 357 kts | 77° |
| 2026-05-07 03:29 | -31.77791 | 116.52601 | 16291 ft | 360 kts | 77° |
| 2026-05-07 03:30 | -31.77229 | 116.55441 | 16857 ft | 363 kts | 77° |
| 2026-05-07 03:30 | -31.76654 | 116.58348 | 17438 ft | 366 kts | 77° |
| 2026-05-07 03:30 | -31.76077 | 116.61283 | 18030 ft | 370 kts | 77° |
| 2026-05-07 03:30 | -31.75470 | 116.64236 | 18642 ft | 373 kts | 76° |
| 2026-05-07 03:31 | -31.74785 | 116.67193 | 19182 ft | 376 kts | 74° |
| 2026-05-07 03:31 | -31.74044 | 116.70158 | 19722 ft | 379 kts | 73° |
| 2026-05-07 03:31 | -31.73277 | 116.73148 | 20271 ft | 383 kts | 73° |
| 2026-05-07 03:31 | -31.72512 | 116.76115 | 20822 ft | 386 kts | 73° |
| 2026-05-07 03:32 | -31.71726 | 116.79183 | 21356 ft | 389 kts | 74° |
| 2026-05-07 03:32 | -31.70952 | 116.82236 | 21870 ft | 392 kts | 74° |
| 2026-05-07 03:32 | -31.70185 | 116.85285 | 22349 ft | 395 kts | 74° |
| 2026-05-07 03:32 | -31.69407 | 116.88400 | 22821 ft | 398 kts | 74° |
| 2026-05-07 03:33 | -31.68628 | 116.91532 | 23276 ft | 401 kts | 74° |
| 2026-05-07 03:33 | -31.67844 | 116.94683 | 23737 ft | 403 kts | 74° |
| 2026-05-07 03:33 | -31.67050 | 116.97862 | 24166 ft | 406 kts | 74° |
| 2026-05-07 03:33 | -31.66259 | 117.01014 | 24532 ft | 409 kts | 74° |
| 2026-05-07 03:34 | -31.65449 | 117.04235 | 24903 ft | 411 kts | 74° |
| 2026-05-07 03:34 | -31.64638 | 117.07461 | 25266 ft | 413 kts | 74° |
| 2026-05-07 03:34 | -31.63822 | 117.10708 | 25618 ft | 416 kts | 74° |
| 2026-05-07 03:34 | -31.62999 | 117.13978 | 25964 ft | 418 kts | 74° |
| 2026-05-07 03:35 | -31.62171 | 117.17263 | 26302 ft | 420 kts | 74° |
| 2026-05-07 03:35 | -31.61333 | 117.20567 | 26644 ft | 423 kts | 74° |
| 2026-05-07 03:35 | -31.60498 | 117.23852 | 26979 ft | 425 kts | 74° |
| 2026-05-07 03:35 | -31.59651 | 117.27186 | 27322 ft | 428 kts | 74° |
| 2026-05-07 03:36 | -31.58801 | 117.30540 | 27656 ft | 430 kts | 74° |
| 2026-05-07 03:36 | -31.57945 | 117.33911 | 27987 ft | 432 kts | 74° |
| 2026-05-07 03:36 | -31.57081 | 117.37307 | 28322 ft | 435 kts | 74° |
| 2026-05-07 03:36 | -31.56214 | 117.40717 | 28653 ft | 437 kts | 74° |
| 2026-05-07 03:37 | -31.55354 | 117.44097 | 28981 ft | 439 kts | 74° |
| 2026-05-07 03:37 | -31.54478 | 117.47538 | 29376 ft | 439 kts | 74° |
| 2026-05-07 03:37 | -31.53602 | 117.50970 | 29850 ft | 438 kts | 74° |
| 2026-05-07 03:37 | -31.52730 | 117.54389 | 30300 ft | 437 kts | 74° |
| 2026-05-07 03:38 | -31.51857 | 117.57802 | 30731 ft | 436 kts | 74° |
| 2026-05-07 03:38 | -31.50982 | 117.61220 | 31112 ft | 436 kts | 75° |
| 2026-05-07 03:38 | -31.50119 | 117.64584 | 31473 ft | 436 kts | 75° |
| 2026-05-07 03:38 | -31.49242 | 117.67996 | 31833 ft | 436 kts | 75° |
| 2026-05-07 03:39 | -31.48366 | 117.71404 | 32209 ft | 436 kts | 75° |
| 2026-05-07 03:39 | -31.47487 | 117.74817 | 32576 ft | 437 kts | 75° |
| 2026-05-07 03:39 | -31.46608 | 117.78223 | 32938 ft | 437 kts | 75° |
| 2026-05-07 03:39 | -31.45734 | 117.81596 | 33294 ft | 437 kts | 74° |
| 2026-05-07 03:40 | -31.44845 | 117.85015 | 33468 ft | 440 kts | 75° |
| 2026-05-07 03:40 | -31.43049 | 117.91953 | 33494 ft | 447 kts | 75° |
| 2026-05-07 03:41 | -31.41245 | 117.98924 | 33495 ft | 447 kts | 75° |
| 2026-05-07 03:41 | -31.39426 | 118.05915 | 33497 ft | 447 kts | 75° |
| 2026-05-07 03:42 | -31.37621 | 118.12835 | 33497 ft | 447 kts | 75° |
| 2026-05-07 03:42 | -31.35795 | 118.19808 | 33503 ft | 448 kts | 75° |
| 2026-05-07 03:43 | -31.33962 | 118.26779 | 33500 ft | 448 kts | 74° |
| 2026-05-07 03:43 | -31.32127 | 118.33752 | 33507 ft | 448 kts | 75° |
| 2026-05-07 03:44 | -31.30290 | 118.40714 | 33508 ft | 448 kts | 75° |
| 2026-05-07 03:44 | -31.28461 | 118.47633 | 33509 ft | 448 kts | 75° |
| 2026-05-07 03:45 | -31.26611 | 118.54589 | 33513 ft | 448 kts | 74° |
| 2026-05-07 03:45 | -31.24759 | 118.61558 | 33517 ft | 448 kts | 75° |
| 2026-05-07 03:46 | -31.22917 | 118.68516 | 33516 ft | 447 kts | 74° |
| 2026-05-07 03:46 | -31.21081 | 118.75424 | 33516 ft | 447 kts | 74° |
| 2026-05-07 03:47 | -31.19219 | 118.82361 | 33516 ft | 446 kts | 75° |
| 2026-05-07 03:47 | -31.17363 | 118.89279 | 33514 ft | 446 kts | 74° |
| 2026-05-07 03:48 | -31.15500 | 118.96199 | 33516 ft | 446 kts | 74° |
| 2026-05-07 03:48 | -31.13646 | 119.03068 | 33513 ft | 446 kts | 74° |
| 2026-05-07 03:49 | -31.11784 | 119.09974 | 33521 ft | 446 kts | 74° |
| 2026-05-07 03:49 | -31.09917 | 119.16885 | 33516 ft | 446 kts | 74° |
| 2026-05-07 03:50 | -31.08051 | 119.23782 | 33516 ft | 446 kts | 73° |
| 2026-05-07 03:50 | -31.06177 | 119.30675 | 33514 ft | 445 kts | 74° |
| 2026-05-07 03:51 | -31.04311 | 119.37533 | 33514 ft | 445 kts | 74° |
| 2026-05-07 03:51 | -31.02434 | 119.44413 | 33513 ft | 445 kts | 73° |
| 2026-05-07 03:52 | -31.00543 | 119.51299 | 33515 ft | 446 kts | 74° |
| 2026-05-07 03:52 | -30.98650 | 119.58187 | 33516 ft | 446 kts | 74° |
| 2026-05-07 03:53 | -30.96769 | 119.65034 | 33417 ft | 446 kts | 74° |
| 2026-05-07 03:53 | -30.95818 | 119.68485 | 33153 ft | 446 kts | 73° |
| 2026-05-07 03:53 | -30.94867 | 119.71928 | 32889 ft | 446 kts | 73° |
| 2026-05-07 03:53 | -30.93915 | 119.75377 | 32076 ft | 449 kts | 73° |
| 2026-05-07 03:54 | -30.92949 | 119.78855 | 31194 ft | 451 kts | 73° |
| 2026-05-07 03:54 | -30.91981 | 119.82346 | 30086 ft | 455 kts | 73° |
| 2026-05-07 03:54 | -30.91015 | 119.85819 | 29100 ft | 455 kts | 73° |
| 2026-05-07 03:54 | -30.90043 | 119.89304 | 28546 ft | 447 kts | 73° |
| 2026-05-07 03:55 | -30.89089 | 119.92728 | 27906 ft | 441 kts | 73° |
| 2026-05-07 03:55 | -30.88149 | 119.96106 | 27276 ft | 436 kts | 73° |
| 2026-05-07 03:55 | -30.87221 | 119.99443 | 26647 ft | 431 kts | 73° |
| 2026-05-07 03:55 | -30.86303 | 120.02750 | 26031 ft | 426 kts | 73° |
| 2026-05-07 03:56 | -30.85703 | 120.04914 | 25588 ft | 424 kts | 73° |
| 2026-05-07 03:56 | -30.84473 | 120.09338 | 24290 ft | 431 kts | 73° |
| 2026-05-07 03:56 | -30.83562 | 120.12595 | 23622 ft | 426 kts | 73° |
| 2026-05-07 03:56 | -30.82646 | 120.15857 | 23022 ft | 419 kts | 73° |
| 2026-05-07 03:57 | -30.82048 | 120.17987 | 22623 ft | 415 kts | 73° |
| 2026-05-07 03:57 | -30.81160 | 120.21147 | 22053 ft | 408 kts | 73° |
| 2026-05-07 03:57 | -30.80279 | 120.24275 | 21490 ft | 403 kts | 73° |
| 2026-05-07 03:57 | -30.79411 | 120.27353 | 20959 ft | 398 kts | 73° |
| 2026-05-07 03:58 | -30.78550 | 120.30410 | 20442 ft | 393 kts | 73° |
| 2026-05-07 03:58 | -30.77703 | 120.33419 | 19946 ft | 389 kts | 73° |
| 2026-05-07 03:58 | -30.76862 | 120.36395 | 19447 ft | 386 kts | 73° |
| 2026-05-07 03:58 | -30.76025 | 120.39355 | 18960 ft | 383 kts | 73° |
| 2026-05-07 03:59 | -30.75198 | 120.42286 | 18413 ft | 380 kts | 73° |
| 2026-05-07 03:59 | -30.74391 | 120.45156 | 17914 ft | 376 kts | 73° |
| 2026-05-07 03:59 | -30.73584 | 120.48025 | 17397 ft | 372 kts | 72° |
| 2026-05-07 03:59 | -30.72778 | 120.50873 | 16888 ft | 368 kts | 72° |
| 2026-05-07 04:00 | -30.71978 | 120.53690 | 16365 ft | 364 kts | 72° |
| 2026-05-07 04:00 | -30.71187 | 120.56468 | 15841 ft | 360 kts | 72° |
| 2026-05-07 04:00 | -30.70403 | 120.59225 | 15311 ft | 357 kts | 72° |
| 2026-05-07 04:00 | -30.69629 | 120.61955 | 14780 ft | 354 kts | 72° |
| 2026-05-07 04:01 | -30.68863 | 120.64656 | 14241 ft | 351 kts | 72° |
| 2026-05-07 04:01 | -30.68098 | 120.67346 | 13673 ft | 348 kts | 72° |
| 2026-05-07 04:01 | -30.67339 | 120.70004 | 13138 ft | 344 kts | 72° |
| 2026-05-07 04:01 | -30.66595 | 120.72600 | 12623 ft | 341 kts | 72° |
| 2026-05-07 04:02 | -30.65847 | 120.75203 | 12096 ft | 338 kts | 72° |
| 2026-05-07 04:02 | -30.65107 | 120.77788 | 11573 ft | 335 kts | 72° |
| 2026-05-07 04:02 | -30.64375 | 120.80354 | 11043 ft | 333 kts | 72° |
| 2026-05-07 04:02 | -30.63651 | 120.82893 | 10692 ft | 326 kts | 72° |
| 2026-05-07 04:03 | -30.62948 | 120.85349 | 10573 ft | 313 kts | 72° |
| 2026-05-07 04:03 | -30.62275 | 120.87700 | 10445 ft | 301 kts | 73° |
| 2026-05-07 04:03 | -30.61876 | 120.90026 | 10327 ft | 289 kts | 86° |
| 2026-05-07 04:03 | -30.61960 | 120.92281 | 10162 ft | 279 kts | 99° |
| 2026-05-07 04:04 | -30.62485 | 120.94426 | 10017 ft | 273 kts | 110° |
| 2026-05-07 04:04 | -30.63158 | 120.96489 | 9953 ft | 273 kts | 109° |
| 2026-05-07 04:04 | -30.63826 | 120.98579 | 9500 ft | 280 kts | 109° |
| 2026-05-07 04:04 | -30.64494 | 121.00689 | 9241 ft | 275 kts | 109° |
| 2026-05-07 04:05 | -30.65151 | 121.02769 | 8902 ft | 274 kts | 109° |
| 2026-05-07 04:05 | -30.65804 | 121.04837 | 8567 ft | 272 kts | 109° |
| 2026-05-07 04:05 | -30.66449 | 121.06873 | 8236 ft | 270 kts | 109° |
| 2026-05-07 04:05 | -30.67096 | 121.08913 | 7928 ft | 268 kts | 109° |
| 2026-05-07 04:06 | -30.67744 | 121.10960 | 7384 ft | 275 kts | 108° |
| 2026-05-07 04:06 | -30.68419 | 121.13096 | 6679 ft | 287 kts | 109° |
| 2026-05-07 04:06 | -30.69108 | 121.15269 | 6369 ft | 282 kts | 109° |
| 2026-05-07 04:06 | -30.69777 | 121.17372 | 6216 ft | 272 kts | 109° |
| 2026-05-07 04:07 | -30.70427 | 121.19404 | 5924 ft | 268 kts | 109° |
| 2026-05-07 04:07 | -30.71073 | 121.21411 | 5549 ft | 268 kts | 109° |
| 2026-05-07 04:07 | -30.71725 | 121.23436 | 5175 ft | 263 kts | 109° |
| 2026-05-07 04:07 | -30.72354 | 121.25383 | 4830 ft | 250 kts | 109° |
| 2026-05-07 04:08 | -30.72939 | 121.27187 | 4504 ft | 226 kts | 109° |
| 2026-05-07 04:08 | -30.73463 | 121.28804 | 4221 ft | 201 kts | 109° |
| 2026-05-07 04:08 | -30.73932 | 121.30256 | 3995 ft | 181 kts | 109° |
| 2026-05-07 04:08 | -30.74352 | 121.31557 | 3714 ft | 161 kts | 109° |
| 2026-05-07 04:09 | -30.74717 | 121.32689 | 3539 ft | 146 kts | 109° |
| 2026-05-07 04:09 | -30.75066 | 121.33772 | 3343 ft | 140 kts | 109° |
| 2026-05-07 04:09 | -30.75406 | 121.34820 | 3160 ft | 138 kts | 109° |
| 2026-05-07 04:09 | -30.75741 | 121.35863 | 2965 ft | 137 kts | 109° |
| 2026-05-07 04:10 | -30.76072 | 121.36901 | 2789 ft | 137 kts | 109° |
| 2026-05-07 04:10 | -30.76403 | 121.37934 | 2591 ft | 136 kts | 109° |
| 2026-05-07 04:10 | -30.76734 | 121.38964 | 2410 ft | 135 kts | 109° |
| 2026-05-07 04:10 | -30.77065 | 121.39986 | 2220 ft | 136 kts | 109° |
| 2026-05-07 04:11 | -30.77394 | 121.41005 | 2030 ft | 137 kts | 108° |
| 2026-05-07 04:11 | -30.77728 | 121.42041 | 1851 ft | 136 kts | 109° |
| 2026-05-07 04:11 | -30.78064 | 121.43066 | 1672 ft | 136 kts | 108° |
| 2026-05-07 04:11 | -30.78388 | 121.44095 | 1474 ft | 135 kts | 108° |
| 2026-05-07 04:12 | -30.78717 | 121.45119 | 1308 ft | 135 kts | 109° |
| 2026-05-07 04:12 | -30.79023 | 121.46078 | 1213 ft | 109 kts | 110° |
| 2026-05-07 04:12 | -30.79203 | 121.46634 | 1210 ft | 58 kts | 109° |
| 2026-05-07 04:12 | -30.79323 | 121.47036 | 1212 ft | 47 kts | 114° |
| 2026-05-07 04:13 | -30.79425 | 121.47330 | 1212 ft | 19 kts | 110° |
| 2026-05-07 04:13 | -30.79448 | 121.47395 | 1211 ft | 2 kts | 203° |
| 2026-05-07 04:13 | -30.79434 | 121.47346 | 1211 ft | 16 kts | 290° |
| 2026-05-07 04:13 | -30.79372 | 121.47153 | 1212 ft | 35 kts | 290° |
| 2026-05-07 04:14 | -30.79272 | 121.46849 | 1212 ft | 43 kts | 290° |
| 2026-05-07 04:14 | -30.79166 | 121.46518 | 1210 ft | 44 kts | 290° |
| 2026-05-07 04:14 | -30.79059 | 121.46180 | 1212 ft | 45 kts | 290° |
| 2026-05-07 04:14 | -30.78956 | 121.45866 | 1214 ft | 29 kts | 290° |
| 2026-05-07 04:15 | -30.78903 | 121.45722 | 1214 ft | 11 kts | 328° |
| 2026-05-07 04:15 | -30.78821 | 121.45731 | 1212 ft | 14 kts | 21° |
| 2026-05-07 04:15 | -30.78721 | 121.45774 | 1212 ft | 17 kts | 20° |
| 2026-05-07 04:15 | -30.78627 | 121.45792 | 1212 ft | 8 kts | 354° |
| 2026-05-07 04:16 | -30.78608 | 121.45789 | 1212 ft | 0 kts | 352° |
| 2026-05-07 04:16 | -30.78601 | 121.45793 | 1212 ft | 0 kts | 37° |
| 2026-05-07 04:16 | -30.78598 | 121.45798 | 1212 ft | 2 kts | 46° |
| 2026-05-07 04:16 | -30.78593 | 121.45806 | 1212 ft | 0 kts | 54° |